sensor_id;sensor_type;location;lat;lon;timestamp;pressure;altitude;pressure_sealevel;temperature;humidity
28004;BME280;15330;51.234;6.754;2023-04-30T00:01:36;101705.09;;;9.94;100.00
28004;BME280;15330;51.234;6.754;2023-04-30T00:04:02;101709.72;;;9.83;100.00
28004;BME280;15330;51.234;6.754;2023-04-30T00:06:27;101712.50;;;9.72;100.00
28004;BME280;15330;51.234;6.754;2023-04-30T00:08:53;101709.22;;;9.68;100.00
28004;BME280;15330;51.234;6.754;2023-04-30T00:11:18;101713.38;;;9.82;100.00
28004;BME280;15330;51.234;6.754;2023-04-30T00:13:43;101705.19;;;9.74;100.00
28004;BME280;15330;51.234;6.754;2023-04-30T00:16:09;101707.78;;;9.94;100.00
28004;BME280;15330;51.234;6.754;2023-04-30T00:18:35;101707.66;;;10.06;100.00
28004;BME280;15330;51.234;6.754;2023-04-30T00:21:00;101710.97;;;9.88;100.00
28004;BME280;15330;51.234;6.754;2023-04-30T00:23:26;101718.16;;;9.88;100.00
28004;BME280;15330;51.234;6.754;2023-04-30T00:25:51;101714.94;;;9.94;100.00
28004;BME280;15330;51.234;6.754;2023-04-30T00:28:16;101711.63;;;9.71;100.00
28004;BME280;15330;51.234;6.754;2023-04-30T00:30:42;101720.13;;;9.86;100.00
28004;BME280;15330;51.234;6.754;2023-04-30T00:33:07;101716.13;;;9.71;100.00
28004;BME280;15330;51.234;6.754;2023-04-30T00:35:32;101723.47;;;9.78;100.00
28004;BME280;15330;51.234;6.754;2023-04-30T00:37:58;101716.16;;;9.80;100.00
28004;BME280;15330;51.234;6.754;2023-04-30T00:40:23;101709.53;;;9.65;100.00
28004;BME280;15330;51.234;6.754;2023-04-30T00:42:48;101719.41;;;9.84;100.00
28004;BME280;15330;51.234;6.754;2023-04-30T00:45:16;101723.94;;;9.93;100.00
28004;BME280;15330;51.234;6.754;2023-04-30T00:47:46;101721.13;;;9.85;100.00
28004;BME280;15330;51.234;6.754;2023-04-30T00:50:11;101727.22;;;9.66;100.00
28004;BME280;15330;51.234;6.754;2023-04-30T00:52:42;101726.88;;;9.50;100.00
28004;BME280;15330;51.234;6.754;2023-04-30T00:55:10;101722.16;;;9.63;100.00
28004;BME280;15330;51.234;6.754;2023-04-30T00:57:37;101724.44;;;9.77;100.00
28004;BME280;15330;51.234;6.754;2023-04-30T01:00:02;101728.06;;;9.67;100.00
28004;BME280;15330;51.234;6.754;2023-04-30T01:02:29;101720.88;;;9.67;100.00
28004;BME280;15330;51.234;6.754;2023-04-30T01:04:55;101720.38;;;9.43;100.00
28004;BME280;15330;51.234;6.754;2023-04-30T01:07:21;101723.53;;;9.57;100.00
28004;BME280;15330;51.234;6.754;2023-04-30T01:09:47;101724.88;;;9.42;100.00
28004;BME280;15330;51.234;6.754;2023-04-30T01:12:48;101726.19;;;9.57;100.00
28004;BME280;15330;51.234;6.754;2023-04-30T01:15:23;101720.22;;;9.65;100.00
28004;BME280;15330;51.234;6.754;2023-04-30T01:18:17;101715.66;;;9.56;100.00
28004;BME280;15330;51.234;6.754;2023-04-30T01:21:00;101715.38;;;9.59;100.00
28004;BME280;15330;51.234;6.754;2023-04-30T01:27:06;101723.28;;;9.61;100.00
28004;BME280;15330;51.234;6.754;2023-04-30T01:29:25;101717.75;;;9.52;100.00
28004;BME280;15330;51.234;6.754;2023-04-30T01:31:51;101716.81;;;9.63;100.00
28004;BME280;15330;51.234;6.754;2023-04-30T01:34:17;101717.97;;;9.40;100.00
28004;BME280;15330;51.234;6.754;2023-04-30T01:37:05;101717.16;;;9.49;100.00
28004;BME280;15330;51.234;6.754;2023-04-30T01:39:47;101723.41;;;9.59;100.00
28004;BME280;15330;51.234;6.754;2023-04-30T01:42:22;101718.59;;;9.53;100.00
28004;BME280;15330;51.234;6.754;2023-04-30T01:45:13;101720.09;;;9.46;100.00
28004;BME280;15330;51.234;6.754;2023-04-30T01:50:51;101715.94;;;9.53;100.00
28004;BME280;15330;51.234;6.754;2023-04-30T01:53:21;101717.47;;;9.55;100.00
28004;BME280;15330;51.234;6.754;2023-04-30T01:55:57;101714.28;;;9.62;100.00
28004;BME280;15330;51.234;6.754;2023-04-30T01:58:23;101712.31;;;9.64;100.00
28004;BME280;15330;51.234;6.754;2023-04-30T02:00:50;101716.19;;;9.50;100.00
28004;BME280;15330;51.234;6.754;2023-04-30T02:03:16;101717.63;;;9.54;100.00
28004;BME280;15330;51.234;6.754;2023-04-30T02:05:41;101719.88;;;9.58;100.00
28004;BME280;15330;51.234;6.754;2023-04-30T02:08:07;101717.91;;;9.51;100.00
28004;BME280;15330;51.234;6.754;2023-04-30T02:10:32;101719.84;;;9.49;100.00
28004;BME280;15330;51.234;6.754;2023-04-30T02:12:58;101717.34;;;9.27;100.00
28004;BME280;15330;51.234;6.754;2023-04-30T02:15:23;101723.31;;;9.09;100.00
28004;BME280;15330;51.234;6.754;2023-04-30T02:17:49;101721.91;;;9.15;100.00
28004;BME280;15330;51.234;6.754;2023-04-30T02:20:14;101720.13;;;9.25;100.00
28004;BME280;15330;51.234;6.754;2023-04-30T02:22:40;101717.16;;;9.18;100.00
28004;BME280;15330;51.234;6.754;2023-04-30T02:25:06;101713.25;;;9.23;100.00
28004;BME280;15330;51.234;6.754;2023-04-30T02:27:32;101723.69;;;9.05;100.00
28004;BME280;15330;51.234;6.754;2023-04-30T02:29:58;101713.53;;;8.78;100.00
28004;BME280;15330;51.234;6.754;2023-04-30T02:32:23;101711.97;;;8.96;100.00
28004;BME280;15330;51.234;6.754;2023-04-30T02:34:49;101723.69;;;9.05;100.00
28004;BME280;15330;51.234;6.754;2023-04-30T02:37:14;101720.56;;;8.79;100.00
28004;BME280;15330;51.234;6.754;2023-04-30T02:39:40;101713.28;;;9.02;100.00
28004;BME280;15330;51.234;6.754;2023-04-30T02:42:06;101722.34;;;8.90;100.00
28004;BME280;15330;51.234;6.754;2023-04-30T02:44:31;101718.69;;;8.91;100.00
28004;BME280;15330;51.234;6.754;2023-04-30T02:46:57;101721.66;;;8.76;100.00
28004;BME280;15330;51.234;6.754;2023-04-30T02:49:23;101717.03;;;8.58;100.00
28004;BME280;15330;51.234;6.754;2023-04-30T02:51:48;101711.72;;;8.78;100.00
28004;BME280;15330;51.234;6.754;2023-04-30T02:54:13;101715.44;;;8.87;100.00
28004;BME280;15330;51.234;6.754;2023-04-30T02:56:39;101717.84;;;8.90;100.00
28004;BME280;15330;51.234;6.754;2023-04-30T02:59:04;101713.84;;;8.84;100.00
28004;BME280;15330;51.234;6.754;2023-04-30T03:01:30;101717.25;;;8.87;100.00
28004;BME280;15330;51.234;6.754;2023-04-30T03:03:55;101709.91;;;8.79;100.00
28004;BME280;15330;51.234;6.754;2023-04-30T03:06:22;101708.13;;;8.89;100.00
28004;BME280;15330;51.234;6.754;2023-04-30T03:08:47;101710.56;;;8.92;100.00
28004;BME280;15330;51.234;6.754;2023-04-30T03:11:13;101715.81;;;8.82;100.00
28004;BME280;15330;51.234;6.754;2023-04-30T03:13:38;101711.31;;;8.83;100.00
28004;BME280;15330;51.234;6.754;2023-04-30T03:16:04;101711.91;;;8.87;100.00
28004;BME280;15330;51.234;6.754;2023-04-30T03:18:30;101713.84;;;8.84;100.00
28004;BME280;15330;51.234;6.754;2023-04-30T03:20:55;101717.56;;;8.72;100.00
28004;BME280;15330;51.234;6.754;2023-04-30T03:23:21;101716.09;;;8.79;100.00
28004;BME280;15330;51.234;6.754;2023-04-30T03:25:46;101716.25;;;8.67;100.00
28004;BME280;15330;51.234;6.754;2023-04-30T03:28:12;101710.69;;;8.70;100.00
28004;BME280;15330;51.234;6.754;2023-04-30T03:30:38;101705.72;;;8.65;100.00
28004;BME280;15330;51.234;6.754;2023-04-30T03:33:03;101716.84;;;8.70;100.00
28004;BME280;15330;51.234;6.754;2023-04-30T03:35:32;101712.56;;;8.58;100.00
28004;BME280;15330;51.234;6.754;2023-04-30T03:37:59;101708.88;;;8.27;100.00
28004;BME280;15330;51.234;6.754;2023-04-30T03:40:24;101714.03;;;8.51;100.00
28004;BME280;15330;51.234;6.754;2023-04-30T03:42:50;101711.69;;;8.58;100.00
28004;BME280;15330;51.234;6.754;2023-04-30T03:45:15;101716.91;;;8.59;100.00
28004;BME280;15330;51.234;6.754;2023-04-30T03:47:41;101711.53;;;8.38;100.00
28004;BME280;15330;51.234;6.754;2023-04-30T03:50:07;101720.84;;;8.44;100.00
28004;BME280;15330;51.234;6.754;2023-04-30T03:52:33;101727.38;;;8.51;100.00
28004;BME280;15330;51.234;6.754;2023-04-30T03:54:59;101712.78;;;8.55;100.00
28004;BME280;15330;51.234;6.754;2023-04-30T03:57:24;101714.38;;;8.58;100.00
28004;BME280;15330;51.234;6.754;2023-04-30T03:59:50;101721.53;;;8.57;100.00
28004;BME280;15330;51.234;6.754;2023-04-30T04:02:15;101713.53;;;8.57;100.00
28004;BME280;15330;51.234;6.754;2023-04-30T04:04:41;101712.44;;;8.60;100.00
28004;BME280;15330;51.234;6.754;2023-04-30T04:07:06;101723.59;;;8.54;100.00
28004;BME280;15330;51.234;6.754;2023-04-30T04:09:33;101720.78;;;8.55;100.00
28004;BME280;15330;51.234;6.754;2023-04-30T04:11:59;101710.00;;;8.57;100.00
28004;BME280;15330;51.234;6.754;2023-04-30T04:14:25;101713.22;;;8.71;100.00
28004;BME280;15330;51.234;6.754;2023-04-30T04:16:51;101719.00;;;8.97;100.00
28004;BME280;15330;51.234;6.754;2023-04-30T04:19:16;101722.50;;;9.18;100.00
28004;BME280;15330;51.234;6.754;2023-04-30T04:21:42;101726.31;;;9.26;100.00
28004;BME280;15330;51.234;6.754;2023-04-30T04:24:07;101719.50;;;9.33;100.00
28004;BME280;15330;51.234;6.754;2023-04-30T04:26:34;101722.03;;;9.34;100.00
28004;BME280;15330;51.234;6.754;2023-04-30T04:29:00;101715.59;;;9.46;100.00
28004;BME280;15330;51.234;6.754;2023-04-30T04:31:26;101719.00;;;9.48;100.00
28004;BME280;15330;51.234;6.754;2023-04-30T04:33:52;101726.00;;;9.40;100.00
28004;BME280;15330;51.234;6.754;2023-04-30T04:36:22;101726.81;;;9.10;100.00
28004;BME280;15330;51.234;6.754;2023-04-30T04:38:48;101728.22;;;8.93;100.00
28004;BME280;15330;51.234;6.754;2023-04-30T04:41:13;101731.13;;;9.01;100.00
28004;BME280;15330;51.234;6.754;2023-04-30T04:43:38;101732.94;;;9.01;100.00
28004;BME280;15330;51.234;6.754;2023-04-30T04:46:04;101731.25;;;8.79;100.00
28004;BME280;15330;51.234;6.754;2023-04-30T04:48:29;101720.94;;;8.74;100.00
28004;BME280;15330;51.234;6.754;2023-04-30T04:50:54;101734.72;;;8.59;100.00
28004;BME280;15330;51.234;6.754;2023-04-30T04:53:20;101746.97;;;8.07;100.00
28004;BME280;15330;51.234;6.754;2023-04-30T04:55:45;101741.38;;;8.10;100.00
28004;BME280;15330;51.234;6.754;2023-04-30T04:58:10;101741.88;;;8.15;100.00
28004;BME280;15330;51.234;6.754;2023-04-30T05:00:37;101745.13;;;8.19;100.00
28004;BME280;15330;51.234;6.754;2023-04-30T05:03:03;101746.22;;;8.16;100.00
28004;BME280;15330;51.234;6.754;2023-04-30T05:05:28;101746.63;;;7.89;100.00
28004;BME280;15330;51.234;6.754;2023-04-30T05:07:54;101754.66;;;7.56;100.00
28004;BME280;15330;51.234;6.754;2023-04-30T05:10:20;101755.25;;;7.59;100.00
28004;BME280;15330;51.234;6.754;2023-04-30T05:12:45;101752.22;;;7.64;100.00
28004;BME280;15330;51.234;6.754;2023-04-30T05:15:11;101760.22;;;7.86;100.00
28004;BME280;15330;51.234;6.754;2023-04-30T05:17:36;101759.47;;;7.95;100.00
28004;BME280;15330;51.234;6.754;2023-04-30T05:20:02;101751.94;;;7.89;100.00
28004;BME280;15330;51.234;6.754;2023-04-30T05:22:27;101762.56;;;8.11;100.00
28004;BME280;15330;51.234;6.754;2023-04-30T05:24:53;101763.94;;;8.60;100.00
28004;BME280;15330;51.234;6.754;2023-04-30T05:27:18;101754.97;;;8.61;100.00
28004;BME280;15330;51.234;6.754;2023-04-30T05:29:43;101754.53;;;8.77;100.00
28004;BME280;15330;51.234;6.754;2023-04-30T05:32:09;101761.38;;;8.91;100.00
28004;BME280;15330;51.234;6.754;2023-04-30T05:34:34;101758.59;;;9.13;100.00
28004;BME280;15330;51.234;6.754;2023-04-30T05:36:59;101769.75;;;9.28;100.00
28004;BME280;15330;51.234;6.754;2023-04-30T05:39:25;101783.47;;;9.65;100.00
28004;BME280;15330;51.234;6.754;2023-04-30T05:41:51;101779.63;;;9.88;100.00
28004;BME280;15330;51.234;6.754;2023-04-30T05:44:16;101781.53;;;10.07;100.00
28004;BME280;15330;51.234;6.754;2023-04-30T05:46:41;101775.28;;;10.37;100.00
28004;BME280;15330;51.234;6.754;2023-04-30T05:49:07;101777.53;;;10.41;100.00
28004;BME280;15330;51.234;6.754;2023-04-30T05:51:32;101775.59;;;10.72;100.00
28004;BME280;15330;51.234;6.754;2023-04-30T05:53:58;101786.44;;;11.09;100.00
28004;BME280;15330;51.234;6.754;2023-04-30T05:56:24;101782.22;;;10.87;100.00
28004;BME280;15330;51.234;6.754;2023-04-30T05:58:50;101785.59;;;11.18;100.00
28004;BME280;15330;51.234;6.754;2023-04-30T06:01:18;101787.16;;;10.82;100.00
28004;BME280;15330;51.234;6.754;2023-04-30T06:03:43;101788.63;;;11.33;100.00
28004;BME280;15330;51.234;6.754;2023-04-30T06:06:08;101790.69;;;11.58;100.00
28004;BME280;15330;51.234;6.754;2023-04-30T06:08:34;101778.66;;;11.25;100.00
28004;BME280;15330;51.234;6.754;2023-04-30T06:10:59;101784.91;;;12.27;99.10
28004;BME280;15330;51.234;6.754;2023-04-30T06:13:27;101784.09;;;12.44;99.06
28004;BME280;15330;51.234;6.754;2023-04-30T06:15:53;101788.75;;;13.31;97.02
28004;BME280;15330;51.234;6.754;2023-04-30T06:18:18;101785.56;;;13.28;96.21
28004;BME280;15330;51.234;6.754;2023-04-30T06:20:44;101786.06;;;13.57;92.86
28004;BME280;15330;51.234;6.754;2023-04-30T06:23:10;101789.06;;;13.80;91.34
28004;BME280;15330;51.234;6.754;2023-04-30T06:25:35;101781.03;;;14.30;91.40
28004;BME280;15330;51.234;6.754;2023-04-30T06:28:00;101782.94;;;14.46;87.88
28004;BME280;15330;51.234;6.754;2023-04-30T06:30:26;101782.84;;;14.21;90.30
28004;BME280;15330;51.234;6.754;2023-04-30T06:32:51;101777.56;;;14.54;88.71
28004;BME280;15330;51.234;6.754;2023-04-30T06:35:17;101772.88;;;14.64;85.33
28004;BME280;15330;51.234;6.754;2023-04-30T06:37:42;101769.34;;;15.28;88.05
28004;BME280;15330;51.234;6.754;2023-04-30T06:40:07;101769.34;;;15.36;85.49
28004;BME280;15330;51.234;6.754;2023-04-30T06:42:33;101778.22;;;15.77;84.90
28004;BME280;15330;51.234;6.754;2023-04-30T06:45:00;101775.00;;;15.74;85.23
28004;BME280;15330;51.234;6.754;2023-04-30T06:47:27;101773.22;;;15.34;83.47
28004;BME280;15330;51.234;6.754;2023-04-30T06:49:52;101778.25;;;16.08;82.43
28004;BME280;15330;51.234;6.754;2023-04-30T06:52:17;101771.03;;;16.01;83.09
28004;BME280;15330;51.234;6.754;2023-04-30T06:54:43;101769.03;;;15.95;82.40
28004;BME280;15330;51.234;6.754;2023-04-30T06:57:08;101770.19;;;16.62;79.98
28004;BME280;15330;51.234;6.754;2023-04-30T06:59:33;101777.53;;;17.37;78.61
28004;BME280;15330;51.234;6.754;2023-04-30T07:01:59;101772.59;;;17.40;75.62
28004;BME280;15330;51.234;6.754;2023-04-30T07:04:24;101772.19;;;17.81;73.65
28004;BME280;15330;51.234;6.754;2023-04-30T07:06:50;101771.13;;;17.15;74.24
28004;BME280;15330;51.234;6.754;2023-04-30T07:09:16;101774.03;;;17.80;77.08
28004;BME280;15330;51.234;6.754;2023-04-30T07:11:41;101771.56;;;18.65;75.04
28004;BME280;15330;51.234;6.754;2023-04-30T07:14:07;101768.41;;;19.32;72.51
28004;BME280;15330;51.234;6.754;2023-04-30T07:16:32;101757.59;;;16.24;77.29
28004;BME280;15330;51.234;6.754;2023-04-30T07:18:57;101766.06;;;16.97;76.87
28004;BME280;15330;51.234;6.754;2023-04-30T07:21:24;101761.78;;;15.95;76.10
28004;BME280;15330;51.234;6.754;2023-04-30T07:23:50;101761.34;;;17.14;76.04
28004;BME280;15330;51.234;6.754;2023-04-30T07:26:15;101760.53;;;18.67;70.82
28004;BME280;15330;51.234;6.754;2023-04-30T07:28:41;101756.56;;;19.68;66.87
28004;BME280;15330;51.234;6.754;2023-04-30T07:31:06;101747.97;;;19.99;68.06
28004;BME280;15330;51.234;6.754;2023-04-30T07:33:32;101751.28;;;18.61;66.09
28004;BME280;15330;51.234;6.754;2023-04-30T07:35:57;101755.00;;;17.88;67.23
28004;BME280;15330;51.234;6.754;2023-04-30T07:38:23;101759.28;;;17.97;67.48
28004;BME280;15330;51.234;6.754;2023-04-30T07:40:49;101748.38;;;19.05;66.68
28004;BME280;15330;51.234;6.754;2023-04-30T07:43:14;101747.72;;;19.94;63.70
28004;BME280;15330;51.234;6.754;2023-04-30T07:45:40;101754.75;;;20.23;64.37
28004;BME280;15330;51.234;6.754;2023-04-30T07:48:06;101756.78;;;20.81;62.28
28004;BME280;15330;51.234;6.754;2023-04-30T07:50:31;101755.97;;;20.20;62.37
28004;BME280;15330;51.234;6.754;2023-04-30T07:53:00;101758.19;;;20.51;62.85
28004;BME280;15330;51.234;6.754;2023-04-30T07:55:25;101756.44;;;20.24;61.16
28004;BME280;15330;51.234;6.754;2023-04-30T07:57:51;101752.59;;;20.72;60.04
28004;BME280;15330;51.234;6.754;2023-04-30T08:00:16;101746.34;;;21.05;61.61
28004;BME280;15330;51.234;6.754;2023-04-30T08:02:42;101750.69;;;20.60;62.16
28004;BME280;15330;51.234;6.754;2023-04-30T08:05:12;101743.19;;;20.81;61.43
28004;BME280;15330;51.234;6.754;2023-04-30T08:07:37;101750.66;;;21.72;56.81
28004;BME280;15330;51.234;6.754;2023-04-30T08:10:04;101751.78;;;20.92;57.50
28004;BME280;15330;51.234;6.754;2023-04-30T08:12:30;101748.84;;;21.46;59.44
28004;BME280;15330;51.234;6.754;2023-04-30T08:15:00;101756.19;;;21.19;58.26
28004;BME280;15330;51.234;6.754;2023-04-30T08:17:25;101737.09;;;20.60;56.10
28004;BME280;15330;51.234;6.754;2023-04-30T08:19:51;101747.84;;;20.27;56.67
28004;BME280;15330;51.234;6.754;2023-04-30T08:22:16;101758.41;;;20.49;56.46
28004;BME280;15330;51.234;6.754;2023-04-30T08:24:42;101754.91;;;19.73;58.68
28004;BME280;15330;51.234;6.754;2023-04-30T08:27:07;101755.13;;;21.13;57.23
28004;BME280;15330;51.234;6.754;2023-04-30T08:29:32;101754.47;;;20.98;58.78
28004;BME280;15330;51.234;6.754;2023-04-30T08:32:01;101756.09;;;20.46;54.52
28004;BME280;15330;51.234;6.754;2023-04-30T08:34:28;101753.81;;;21.75;56.08
28004;BME280;15330;51.234;6.754;2023-04-30T08:36:53;101755.81;;;21.93;54.98
28004;BME280;15330;51.234;6.754;2023-04-30T08:39:18;101746.72;;;21.54;51.87
28004;BME280;15330;51.234;6.754;2023-04-30T08:41:45;101748.16;;;20.04;55.92
28004;BME280;15330;51.234;6.754;2023-04-30T08:44:16;101751.78;;;21.05;54.35
28004;BME280;15330;51.234;6.754;2023-04-30T08:46:42;101753.06;;;21.22;54.65
28004;BME280;15330;51.234;6.754;2023-04-30T08:49:09;101756.03;;;22.43;54.08
28004;BME280;15330;51.234;6.754;2023-04-30T08:51:35;101754.06;;;22.94;52.96
28004;BME280;15330;51.234;6.754;2023-04-30T08:54:01;101744.03;;;22.88;52.76
28004;BME280;15330;51.234;6.754;2023-04-30T08:56:26;101742.13;;;20.89;54.60
28004;BME280;15330;51.234;6.754;2023-04-30T08:58:53;101734.59;;;21.50;50.86
28004;BME280;15330;51.234;6.754;2023-04-30T09:01:19;101733.78;;;20.84;53.40
28004;BME280;15330;51.234;6.754;2023-04-30T09:03:44;101740.25;;;20.70;52.57
28004;BME280;15330;51.234;6.754;2023-04-30T09:06:14;101741.28;;;19.60;56.31
28004;BME280;15330;51.234;6.754;2023-04-30T09:08:41;101741.75;;;20.11;53.47
28004;BME280;15330;51.234;6.754;2023-04-30T09:11:26;101737.56;;;21.22;54.11
28004;BME280;15330;51.234;6.754;2023-04-30T09:13:55;101736.19;;;18.95;54.28
28004;BME280;15330;51.234;6.754;2023-04-30T09:16:22;101733.53;;;20.59;53.70
28004;BME280;15330;51.234;6.754;2023-04-30T09:18:48;101735.28;;;20.19;51.25
28004;BME280;15330;51.234;6.754;2023-04-30T09:21:14;101721.00;;;20.04;52.14
28004;BME280;15330;51.234;6.754;2023-04-30T09:24:00;101728.69;;;20.41;53.43
28004;BME280;15330;51.234;6.754;2023-04-30T09:26:37;101727.19;;;19.85;53.48
28004;BME280;15330;51.234;6.754;2023-04-30T09:29:03;101723.09;;;21.42;52.31
28004;BME280;15330;51.234;6.754;2023-04-30T09:31:35;101722.47;;;19.93;51.40
28004;BME280;15330;51.234;6.754;2023-04-30T09:34:00;101723.88;;;19.48;53.39
28004;BME280;15330;51.234;6.754;2023-04-30T09:36:26;101718.56;;;19.68;55.76
28004;BME280;15330;51.234;6.754;2023-04-30T09:38:52;101713.28;;;20.01;51.70
28004;BME280;15330;51.234;6.754;2023-04-30T09:41:26;101714.66;;;20.38;52.63
28004;BME280;15330;51.234;6.754;2023-04-30T09:43:55;101707.53;;;19.76;53.76
28004;BME280;15330;51.234;6.754;2023-04-30T09:46:29;101700.03;;;20.45;53.95
28004;BME280;15330;51.234;6.754;2023-04-30T09:48:59;101701.56;;;20.81;51.67
28004;BME280;15330;51.234;6.754;2023-04-30T09:51:25;101702.28;;;20.22;49.38
28004;BME280;15330;51.234;6.754;2023-04-30T09:53:52;101699.22;;;20.58;50.87
28004;BME280;15330;51.234;6.754;2023-04-30T09:56:22;101695.50;;;20.85;52.08
28004;BME280;15330;51.234;6.754;2023-04-30T09:58:53;101699.47;;;19.48;54.33
28004;BME280;15330;51.234;6.754;2023-04-30T10:01:20;101692.97;;;19.90;56.35
28004;BME280;15330;51.234;6.754;2023-04-30T10:03:46;101687.94;;;20.61;54.16
28004;BME280;15330;51.234;6.754;2023-04-30T10:06:14;101696.19;;;21.72;51.71
28004;BME280;15330;51.234;6.754;2023-04-30T10:08:52;101695.25;;;22.04;51.82
28004;BME280;15330;51.234;6.754;2023-04-30T10:11:22;101696.47;;;22.46;50.94
28004;BME280;15330;51.234;6.754;2023-04-30T10:14:03;101694.88;;;21.23;50.35
28004;BME280;15330;51.234;6.754;2023-04-30T10:16:58;101688.78;;;21.21;53.29
28004;BME280;15330;51.234;6.754;2023-04-30T10:19:29;101683.44;;;21.66;50.84
28004;BME280;15330;51.234;6.754;2023-04-30T10:21:56;101683.75;;;20.52;51.61
28004;BME280;15330;51.234;6.754;2023-04-30T10:24:21;101685.84;;;21.09;50.60
28004;BME280;15330;51.234;6.754;2023-04-30T10:26:47;101679.22;;;19.92;54.81
28004;BME280;15330;51.234;6.754;2023-04-30T10:29:15;101674.06;;;22.06;50.98
28004;BME280;15330;51.234;6.754;2023-04-30T10:31:44;101679.34;;;22.32;48.79
28004;BME280;15330;51.234;6.754;2023-04-30T10:34:35;101677.88;;;21.34;50.58
28004;BME280;15330;51.234;6.754;2023-04-30T10:37:12;101664.75;;;20.85;49.86
28004;BME280;15330;51.234;6.754;2023-04-30T10:39:39;101670.56;;;21.35;49.20
28004;BME280;15330;51.234;6.754;2023-04-30T10:42:06;101650.94;;;20.80;49.22
28004;BME280;15330;51.234;6.754;2023-04-30T10:44:35;101664.72;;;20.78;51.75
28004;BME280;15330;51.234;6.754;2023-04-30T10:47:02;101657.69;;;21.68;49.91
28004;BME280;15330;51.234;6.754;2023-04-30T10:49:28;101660.81;;;22.48;50.53
28004;BME280;15330;51.234;6.754;2023-04-30T10:51:53;101649.91;;;22.48;46.65
28004;BME280;15330;51.234;6.754;2023-04-30T10:54:28;101643.41;;;23.17;46.55
28004;BME280;15330;51.234;6.754;2023-04-30T10:57:15;101642.16;;;20.58;48.26
28004;BME280;15330;51.234;6.754;2023-04-30T11:00:19;101627.88;;;22.99;46.95
28004;BME280;15330;51.234;6.754;2023-04-30T11:02:46;101621.47;;;22.62;45.11
28004;BME280;15330;51.234;6.754;2023-04-30T11:05:13;101627.25;;;21.13;47.94
28004;BME280;15330;51.234;6.754;2023-04-30T11:07:55;101622.69;;;20.81;49.08
28004;BME280;15330;51.234;6.754;2023-04-30T11:10:24;101624.94;;;21.10;50.31
28004;BME280;15330;51.234;6.754;2023-04-30T11:12:52;101615.09;;;21.16;49.14
28004;BME280;15330;51.234;6.754;2023-04-30T11:15:20;101617.13;;;21.40;50.28
28004;BME280;15330;51.234;6.754;2023-04-30T11:17:47;101612.69;;;21.52;47.68
28004;BME280;15330;51.234;6.754;2023-04-30T11:20:18;101614.34;;;20.63;48.87
28004;BME280;15330;51.234;6.754;2023-04-30T11:22:44;101611.78;;;20.28;51.49
28004;BME280;15330;51.234;6.754;2023-04-30T11:25:10;101605.31;;;20.23;50.24
28004;BME280;15330;51.234;6.754;2023-04-30T11:27:42;101588.78;;;20.90;48.80
28004;BME280;15330;51.234;6.754;2023-04-30T11:30:14;101612.03;;;20.86;48.56
28004;BME280;15330;51.234;6.754;2023-04-30T11:32:41;101607.22;;;20.75;48.65
28004;BME280;15330;51.234;6.754;2023-04-30T11:35:08;101599.41;;;19.93;50.00
28004;BME280;15330;51.234;6.754;2023-04-30T11:37:34;101604.31;;;20.63;48.42
28004;BME280;15330;51.234;6.754;2023-04-30T11:40:08;101603.44;;;20.23;48.35
28004;BME280;15330;51.234;6.754;2023-04-30T11:42:36;101593.16;;;20.05;48.62
28004;BME280;15330;51.234;6.754;2023-04-30T11:45:05;101596.34;;;20.68;46.19
28004;BME280;15330;51.234;6.754;2023-04-30T11:47:45;101603.81;;;21.26;45.51
28004;BME280;15330;51.234;6.754;2023-04-30T11:50:13;101596.56;;;20.54;46.47
28004;BME280;15330;51.234;6.754;2023-04-30T11:52:39;101596.56;;;20.86;46.18
28004;BME280;15330;51.234;6.754;2023-04-30T11:55:08;101601.94;;;21.06;45.98
28004;BME280;15330;51.234;6.754;2023-04-30T11:57:41;101590.03;;;21.65;45.25
28004;BME280;15330;51.234;6.754;2023-04-30T12:00:15;101590.50;;;22.00;44.42
28004;BME280;15330;51.234;6.754;2023-04-30T12:02:43;101588.31;;;19.94;47.86
28004;BME280;15330;51.234;6.754;2023-04-30T12:05:22;101589.41;;;19.04;50.06
28004;BME280;15330;51.234;6.754;2023-04-30T12:07:48;101581.88;;;20.15;47.79
28004;BME280;15330;51.234;6.754;2023-04-30T12:10:14;101579.41;;;20.60;46.88
28004;BME280;15330;51.234;6.754;2023-04-30T12:12:42;101586.00;;;21.10;45.50
28004;BME280;15330;51.234;6.754;2023-04-30T12:15:15;101564.97;;;20.85;46.91
28004;BME280;15330;51.234;6.754;2023-04-30T12:17:41;101567.97;;;21.29;45.26
28004;BME280;15330;51.234;6.754;2023-04-30T12:20:08;101567.94;;;20.44;47.05
28004;BME280;15330;51.234;6.754;2023-04-30T12:22:34;101566.97;;;19.24;48.85
28004;BME280;15330;51.234;6.754;2023-04-30T12:25:05;101560.56;;;19.38;50.14
28004;BME280;15330;51.234;6.754;2023-04-30T12:27:32;101566.41;;;18.94;49.91
28004;BME280;15330;51.234;6.754;2023-04-30T12:30:02;101557.16;;;19.84;49.50
28004;BME280;15330;51.234;6.754;2023-04-30T12:32:28;101559.75;;;20.71;48.00
28004;BME280;15330;51.234;6.754;2023-04-30T12:34:57;101550.75;;;20.17;48.35
28004;BME280;15330;51.234;6.754;2023-04-30T12:37:25;101553.03;;;20.01;48.88
28004;BME280;15330;51.234;6.754;2023-04-30T12:39:51;101556.78;;;20.79;48.76
28004;BME280;15330;51.234;6.754;2023-04-30T12:42:19;101556.19;;;20.57;46.81
28004;BME280;15330;51.234;6.754;2023-04-30T12:44:44;101552.88;;;20.55;46.67
28004;BME280;15330;51.234;6.754;2023-04-30T12:47:10;101548.84;;;20.84;46.86
28004;BME280;15330;51.234;6.754;2023-04-30T12:49:35;101552.63;;;20.10;48.11
28004;BME280;15330;51.234;6.754;2023-04-30T12:52:08;101543.00;;;20.08;47.22
28004;BME280;15330;51.234;6.754;2023-04-30T12:54:34;101539.06;;;20.10;47.57
28004;BME280;15330;51.234;6.754;2023-04-30T12:57:02;101539.25;;;20.15;47.12
28004;BME280;15330;51.234;6.754;2023-04-30T12:59:28;101543.47;;;18.96;49.12